Latest Coastal Weather Observations for Creal Reef

IDQ60701

Issued at 11:02 am EST Friday 20 July 2018 (issued every 10 minutes, with the page automatically refreshed every 10 minutes)

About coastal observations | Map of coastal stations | Coastal observations for QLD | Marine services | Other Formats
Station Details ID: 200736 Name: CREAL REEF Lat: -20.53 Lon: 150.38 Height: 1.7 m
Data from the previous 72 hours. | See also: Recent months for locations in Queensland
Date/Time
EST
Temp
°C
Wind Pressure Rain since
9am
mm
Weather Cloud Vis
km
Sea
Height
m
Swell
Dir  Spd
kts
Gust
kts
hPa Trend Height
m
Period
s
Dir
20/11:00am 23.2 NNE 9 11 1018.0 - - - - - - - - -
20/10:30am 23.2 NNE 10 11 1018.1 - - - - - - - - -
20/10:20am 23.1 NNE 10 - 1018.1 - - - - - - - - -
20/10:00am 23.1 NNE 10 11 1018.4 - - - - - - - - -
20/09:30am 23.0 NNE 11 13 1018.4 - - - - - - - - -
20/09:20am 23.0 NNE 11 - 1018.1 - - - - - - - - -
20/09:00am 23.1 NNE 12 13 1018.0 - - - - - - - - -
20/08:30am 23.0 NNE 12 13 1017.8 - - - - - - - - -
20/08:20am 23.0 NNE 12 - 1017.7 - - - - - - - - -
20/08:00am 22.9 NE 12 14 1017.7 - - - - - - - - -
20/07:30am 22.8 NNE 12 15 1017.5 - - - - - - - - -
20/07:20am 22.8 NNE 13 - 1017.4 - - - - - - - - -
20/07:00am 22.7 NNE 13 15 1017.4 - - - - - - - - -
20/06:30am 22.7 NNE 12 14 1017.2 - - - - - - - - -
20/06:20am 22.7 NE 12 - 1017.0 - - - - - - - - -
20/06:00am 22.7 NNE 11 14 1017.3 - - - - - - - - -
20/05:30am 22.6 NNE 12 14 1017.1 - - - - - - - - -
20/05:20am 22.6 NE 12 - 1016.8 - - - - - - - - -
20/05:00am 22.6 NE 13 15 1016.8 - - - - - - - - -
20/04:30am 22.7 NE 15 17 1016.6 - - - - - - - - -
20/04:20am 22.6 NE 15 - 1016.5 - - - - - - - - -
20/04:00am 22.7 NE 15 17 1016.5 - - - - - - - - -
20/03:30am 22.4 ENE 16 18 1016.4 - - - - - - - - -
20/03:20am 22.4 ENE 15 - 1016.3 - - - - - - - - -
20/03:00am 22.5 ENE 16 18 1016.5 - - - - - - - - -
20/02:30am 22.5 ENE 17 19 1016.5 - - - - - - - - -
20/02:20am 22.5 ENE 17 - 1016.4 - - - - - - - - -
20/02:00am 22.4 ENE 19 22 1016.6 - - - - - - - - -
20/01:30am 22.5 ENE 19 22 1016.8 - - - - - - - - -
20/01:20am 22.5 ENE 17 - 1017.0 - - - - - - - - -
20/01:00am 22.5 ENE 16 18 1017.5 - - - - - - - - -
20/12:30am 22.5 E 12 14 1018.0 - - - - - - - - -
20/12:20am 22.5 E 13 - 1017.9 - - - - - - - - -
20/12:00am 22.4 E 14 15 1018.0 - - - - - - - - -
 
Date/Time
EST
Temp
°C
Wind Pressure Rain since
9am
mm
Weather Cloud Vis
km
Sea
Height
m
Swell
Dir  Spd
kts
Gust
kts
hPa Trend Height
m
Period
s
Dir
19/11:30pm 22.5 E 12 15 1018.1 - - - - - - - - -
19/11:20pm 22.4 E 12 - 1018.0 - - - - - - - - -
19/11:00pm 22.2 E 14 15 1018.2 - - - - - - - - -
19/10:30pm 22.3 E 15 16 1018.1 - - - - - - - - -
19/10:20pm 22.2 E 15 - 1018.0 - - - - - - - - -
19/10:00pm 22.3 E 17 19 1018.1 - - - - - - - - -
19/09:30pm 22.3 E 16 17 1018.1 - - - - - - - - -
19/09:20pm 22.3 E 16 - 1018.1 - - - - - - - - -
19/09:00pm 22.3 E 15 17 1018.2 - - - - - - - - -
19/08:30pm 22.4 E 15 17 1018.1 - - - - - - - - -
19/08:20pm 22.4 E 15 - 1018.0 - - - - - - - - -
19/08:00pm 22.3 E 15 17 1018.1 - - - - - - - - -
19/07:30pm 22.3 E 15 18 1017.7 - - - - - - - - -
19/07:20pm 22.3 E 15 - 1017.5 - - - - - - - - -
19/07:00pm 22.2 E 17 19 1017.2 - - - - - - - - -
19/06:30pm 22.3 E 16 19 1017.1 - - - - - - - - -
19/06:20pm 22.3 E 17 - 1017.0 - - - - - - - - -
19/06:00pm 22.4 E 17 19 1017.0 - - - - - - - - -
19/05:30pm 22.5 E 16 19 1017.0 - - - - - - - - -
19/05:20pm 22.5 E 17 - 1016.8 - - - - - - - - -
19/05:00pm 22.6 E 15 19 1016.9 - - - - - - - - -
19/04:30pm 22.8 E 14 16 1016.8 - - - - - - - - -
19/04:20pm 23.0 E 14 - 1016.7 - - - - - - - - -
19/04:00pm 23.0 E 14 16 1016.7 - - - - - - - - -
19/03:30pm 23.1 E 12 14 1016.6 - - - - - - - - -
19/03:20pm 23.0 E 13 - 1016.5 - - - - - - - - -
19/03:00pm 23.0 ENE 12 14 1016.6 - - - - - - - - -
19/02:30pm 23.2 E 12 14 1016.9 - - - - - - - - -
19/02:20pm 23.1 E 11 - 1016.9 - - - - - - - - -
19/02:00pm 22.1 SE 10 11 1017.1 - - - - - - - - -
19/01:30pm 21.9 SE 10 12 1017.6 - - - - - - - - -
19/01:20pm 21.8 ESE 11 - 1017.6 - - - - - - - - -
19/01:00pm 21.7 ESE 12 15 1018.1 - - - - - - - - -
19/12:30pm 21.7 SE 13 15 1018.4 - - - - - - - - -
19/12:20pm 21.6 SE 14 - 1018.3 - - - - - - - - -
19/12:00pm 21.4 SE 16 19 1018.7 - - - - - - - - -
19/11:30am 21.5 SE 16 18 1019.2 - - - - - - - - -
19/11:20am 21.4 SE 17 - 1019.2 - - - - - - - - -
19/11:00am 21.7 SE 18 20 1019.6 - - - - - - - - -
19/10:30am 21.1 SE 12 16 1020.0 - - - - - - - - -
19/10:20am 21.0 SE 11 - 1019.9 - - - - - - - - -
19/10:00am 21.0 ESE 18 25 1020.0 - - - - - - - - -
19/09:51am 21.8 ESE 15 25 1019.9 - - - - - - - - -
19/09:30am 22.0 SE 15 18 1019.9 - - - - - - - - -
19/09:20am 22.1 SE 14 - 1019.8 - - - - - - - - -
19/09:00am 21.8 SE 13 17 1020.0 - - - - - - - - -
19/08:30am 21.7 ESE 15 19 1019.7 - - - - - - - - -
19/08:20am 22.0 ESE 14 - 1019.5 - - - - - - - - -
19/08:00am 22.2 ESE 15 16 1019.5 - - - - - - - - -
19/07:30am 22.4 SE 12 14 1019.2 - - - - - - - - -
19/07:20am 22.3 SE 12 - 1019.0 - - - - - - - - -
19/07:00am 22.3 ESE 13 15 1018.8 - - - - - - - - -
19/06:30am 22.3 SE 14 16 1018.6 - - - - - - - - -
19/06:20am 22.3 ESE 13 - 1018.4 - - - - - - - - -
19/06:00am 22.3 ESE 13 15 1018.5 - - - - - - - - -
19/05:30am 22.4 ESE 12 14 1018.3 - - - - - - - - -
19/05:20am 22.4 ESE 13 - 1018.2 - - - - - - - - -
19/05:00am 22.4 ESE 14 16 1018.3 - - - - - - - - -
19/04:30am 22.7 ESE 13 14 1018.2 - - - - - - - - -
19/04:20am 22.6 ESE 13 - 1018.1 - - - - - - - - -
19/04:00am 22.9 E 12 16 1018.1 - - - - - - - - -
19/03:30am 22.7 E 12 14 1018.2 - - - - - - - - -
19/03:20am 22.6 E 12 - 1018.2 - - - - - - - - -
19/03:00am 22.6 E 14 15 1018.4 - - - - - - - - -
19/02:30am 22.4 ESE 14 16 1018.6 - - - - - - - - -
19/02:20am 22.5 ESE 15 - 1018.6 - - - - - - - - -
19/02:00am 22.5 ESE 12 13 1018.8 - - - - - - - - -
19/01:30am 22.6 ESE 13 16 1019.1 - - - - - - - - -
19/01:20am 22.6 E 13 - 1019.1 - - - - - - - - -
19/01:00am 22.6 E 9 10 1019.4 - - - - - - - - -
19/12:30am 22.7 E 14 21 1019.6 - - - - - - - - -
19/12:20am 22.7 E 17 - 1019.4 - - - - - - - - -
19/12:00am 22.6 E 16 18 1019.5 - - - - - - - - -
 
Date/Time
EST
Temp
°C
Wind Pressure Rain since
9am
mm
Weather Cloud Vis
km
Sea
Height
m
Swell
Dir  Spd
kts
Gust
kts
hPa Trend Height
m
Period
s
Dir
18/11:30pm 22.6 E 15 17 1019.6 - - - - - - - - -
18/11:20pm 22.7 E 16 - 1019.4 - - - - - - - - -
18/11:00pm 22.5 E 14 17 1019.6 - - - - - - - - -
18/10:30pm 22.6 E 16 19 1019.6 - - - - - - - - -
18/10:20pm 22.5 E 17 - 1019.5 - - - - - - - - -
18/10:00pm 22.5 E 18 21 1019.7 - - - - - - - - -
18/09:30pm 22.5 E 16 19 1019.7 - - - - - - - - -
18/09:20pm 22.5 E 17 - 1019.5 - - - - - - - - -
18/09:00pm 22.7 ESE 16 19 1019.6 - - - - - - - - -
18/08:30pm 22.5 ESE 16 19 1019.6 - - - - - - - - -
18/08:20pm 22.5 ESE 15 - 1019.4 - - - - - - - - -
18/08:00pm 22.6 ESE 16 18 1019.3 - - - - - - - - -
18/07:30pm 22.6 SE 16 19 1019.1 - - - - - - - - -
18/07:20pm 22.6 SE 15 - 1019.0 - - - - - - - - -
18/07:00pm 22.6 SE 15 16 1019.0 - - - - - - - - -
18/06:30pm 22.6 ESE 12 15 1018.8 - - - - - - - - -
18/06:20pm 22.6 SE 13 - 1018.7 - - - - - - - - -
18/06:00pm 22.6 ESE 13 15 1018.5 - - - - - - - - -
18/05:30pm 22.5 SE 13 15 1018.4 - - - - - - - - -
18/05:20pm 22.5 ESE 13 - 1018.2 - - - - - - - - -
18/05:00pm 22.5 ESE 14 16 1018.1 - - - - - - - - -
18/04:30pm 22.5 ESE 14 16 1017.8 - - - - - - - - -
18/04:20pm 22.5 ESE 13 - 1017.6 - - - - - - - - -
18/04:00pm 22.5 ESE 12 15 1017.6 - - - - - - - - -
18/03:30pm 22.5 ESE 12 14 1017.3 - - - - - - - - -
18/03:20pm 22.5 ESE 11 - 1017.1 - - - - - - - - -
18/03:00pm 22.6 ESE 11 13 1017.3 - - - - - - - - -
18/02:30pm 22.5 ESE 11 14 1017.5 - - - - - - - - -
18/02:20pm 22.5 ESE 12 - 1017.4 - - - - - - - - -
18/02:00pm 22.5 ESE 12 14 1017.6 - - - - - - - - -
18/01:30pm 22.4 ESE 14 16 1017.8 - - - - - - - - -
18/01:20pm 22.4 ESE 14 - 1017.8 - - - - - - - - -
18/01:00pm 22.4 ESE 14 17 1018.1 - - - - - - - - -
18/12:30pm 22.4 ESE 16 18 1018.5 - - - - - - - - -
18/12:20pm 22.4 ESE 16 - 1018.5 - - - - - - - - -
18/12:00pm 22.5 SE 16 18 1018.9 - - - - - - - - -
18/11:30am 22.5 ESE 15 18 1019.3 - - - - - - - - -
18/11:20am 22.5 ESE 15 - 1019.3 - - - - - - - - -
18/11:00am 22.5 ESE 16 18 1019.5 - - - - - - - - -
18/10:30am 22.5 ESE 15 18 1019.7 - - - - - - - - -
18/10:20am 22.5 ESE 15 - 1019.7 - - - - - - - - -
18/10:00am 22.6 SE 13 15 1019.9 - - - - - - - - -
18/09:30am 22.6 ESE 13 15 1019.9 - - - - - - - - -
18/09:20am 22.7 SE 13 - 1019.8 - - - - - - - - -
18/09:00am 22.6 SE 12 14 1019.8 - - - - - - - - -
18/08:30am 22.6 SE 11 14 1019.6 - - - - - - - - -
18/08:20am 22.5 SE 12 - 1019.4 - - - - - - - - -
18/08:00am 22.5 SE 11 12 1019.3 - - - - - - - - -
18/07:30am 22.5 SE 9 10 1018.8 - - - - - - - - -
18/07:20am 22.3 SE 9 - 1018.5 - - - - - - - - -
18/07:00am 22.1 SE 9 10 1018.6 - - - - - - - - -
18/06:30am 22.1 SSE 8 9 1018.3 - - - - - - - - -
18/06:20am 22.1 SSE 7 - 1018.1 - - - - - - - - -
18/06:00am 22.1 SE 8 9 1018.0 - - - - - - - - -
18/05:30am 22.0 SE 9 10 1017.9 - - - - - - - - -
18/05:20am 22.1 SE 8 - 1017.7 - - - - - - - - -
18/05:00am 22.1 SE 10 11 1017.8 - - - - - - - - -
18/04:30am 22.1 SE 10 12 1017.6 - - - - - - - - -
18/04:20am 22.2 SE 9 - 1017.5 - - - - - - - - -
18/04:00am 22.1 SE 11 13 1017.5 - - - - - - - - -
18/03:30am 22.0 ESE 12 15 1017.5 - - - - - - - - -
18/03:20am 22.1 SE 12 - 1017.4 - - - - - - - - -
18/03:00am 22.0 ESE 12 14 1017.5 - - - - - - - - -
18/02:30am 22.1 ESE 12 14 1017.7 - - - - - - - - -
18/02:20am 22.1 ESE 12 - 1017.7 - - - - - - - - -
18/02:00am 22.1 ESE 12 15 1017.8 - - - - - - - - -
18/01:30am 22.1 SE 14 16 1017.9 - - - - - - - - -
18/01:20am 22.1 ESE 14 - 1017.9 - - - - - - - - -
18/01:00am 22.1 SE 14 16 1018.2 - - - - - - - - -
18/12:30am 22.1 ESE 15 17 1018.2 - - - - - - - - -
18/12:20am 22.2 ESE 14 - 1018.2 - - - - - - - - -
18/12:00am 22.2 ESE 15 17 1018.3 - - - - - - - - -
 
Date/Time
EST
Temp
°C
Wind Pressure Rain since
9am
mm
Weather Cloud Vis
km
Sea
Height
m
Swell
Dir  Spd
kts
Gust
kts
hPa Trend Height
m
Period
s
Dir
17/11:30pm 22.3 ESE 14 17 1018.5 - - - - - - - - -
17/11:20pm 22.3 ESE 14 - 1018.5 - - - - - - - - -
17/11:00pm 22.4 ESE 14 16 1018.5 - - - - - - - - -
17/10:30pm 22.6 ESE 14 16 1018.7 - - - - - - - - -
17/10:20pm 22.6 ESE 14 - 1018.7 - - - - - - - - -
17/10:00pm 22.6 SE 13 15 1018.8 - - - - - - - - -
17/09:30pm 22.6 SE 13 15 1018.7 - - - - - - - - -
17/09:20pm 22.5 SE 13 - 1018.6 - - - - - - - - -
17/09:00pm 22.2 SE 12 15 1018.5 - - - - - - - - -
17/08:30pm 22.1 SE 13 15 1018.3 - - - - - - - - -
17/08:20pm 22.3 SE 13 - 1018.1 - - - - - - - - -
17/08:00pm 22.1 SE 14 16 1018.0 - - - - - - - - -
17/07:30pm 22.0 SE 13 15 1017.8 - - - - - - - - -
17/07:20pm 22.1 SE 13 - 1017.7 - - - - - - - - -
17/07:00pm 22.1 ESE 13 16 1017.6 - - - - - - - - -
17/06:30pm 22.0 ESE 13 15 1017.2 - - - - - - - - -
17/06:20pm 22.0 ESE 13 - 1017.0 - - - - - - - - -
17/06:00pm 22.0 ESE 14 15 1016.9 - - - - - - - - -
17/05:30pm 22.0 ESE 13 16 1016.9 - - - - - - - - -
17/05:20pm 22.0 ESE 14 - 1016.6 - - - - - - - - -
17/05:00pm 22.1 ESE 14 17 1016.6 - - - - - - - - -
17/04:30pm 22.1 SE 14 16 1016.5 - - - - - - - - -
17/04:20pm 22.3 SE 13 - 1016.3 - - - - - - - - -
17/04:00pm 22.3 SE 13 15 1016.2 - - - - - - - - -
17/03:30pm 22.3 SE 13 15 1016.2 - - - - - - - - -
17/03:20pm 22.4 SE 12 - 1016.0 - - - - - - - - -
17/03:00pm 22.4 SE 12 14 1016.2 - - - - - - - - -
17/02:30pm 22.4 SE 12 14 1016.2 - - - - - - - - -
17/02:20pm 22.2 SE 12 - 1016.1 - - - - - - - - -
17/02:00pm 22.6 SE 12 14 1016.3 - - - - - - - - -
17/01:30pm 22.5 SE 12 14 1016.5 - - - - - - - - -
17/01:20pm 22.5 SE 12 - 1016.5 - - - - - - - - -
17/01:00pm 22.4 SE 11 13 1016.7 - - - - - - - - -
17/12:30pm 22.3 SE 11 13 1017.1 - - - - - - - - -
17/12:20pm 22.4 SE 11 - 1017.1 - - - - - - - - -
17/12:00pm 22.4 SE 12 14 1017.3 - - - - - - - - -
17/11:30am 22.3 SE 11 13 1017.7 - - - - - - - - -
17/11:20am 22.4 SE 11 - 1017.7 - - - - - - - - -

Other Formats:

Comma delimited format used in spreadsheet applications
http://www.bom.gov.au/fwo/IDQ60701/IDQ60701.94371.axf

JavaScript Object Notation format (JSON) in row-major order
http://www.bom.gov.au/fwo/IDQ60701/IDQ60701.94371.json